Latest Weather Observations for Sydney Harbour

IDN60801

Issued at 2:32 am EDT Sunday 29 March 2015 (issued every 30 minutes, with the page automatically refreshed every 10 minutes)

About weather observations | Map of weather stations | Latest weather observations for NSW | Other Formats
Station Details ID: 066196 Name: WEDDING CAKE WEST Lat: -33.84 Lon: 151.26 Height: 6.0 m
Data from the previous 72 hours. | See also: Recent months for locations in New South Wales
Date/Time
EDT
Temp
°C
App
Temp
°C
Dew
Point
Rel
Hum
%
Delta-T
°C
Wind Press
QNH
hPa
Press
MSL
hPa
Rain
since 9 am
mm
Dir
 
Spd
km/h
Gust
km/h
Spd
kts
Gust
kts
29/02:30am 18.4 - - - - ENE 9 13 5 7 - - -
29/02:00am 18.8 - - - - ENE 7 9 4 5 - - -
29/01:30am 19.0 - - - - ENE 7 9 4 5 - - -
29/01:00am 19.3 - - - - CALM 0 0 0 0 - - -
29/12:30am 20.1 - - - - ENE 7 11 4 6 - - -
29/12:00am 20.0 - - - - ENE 9 11 5 6 - - -
 
Date/Time
EDT
Temp
°C
App
Temp
°C
Dew
Point
Rel
Hum
%
Delta-T
°C
Wind Press
QNH
hPa
Press
MSL
hPa
Rain
since 9 am
mm
Dir
 
Spd
km/h
Gust
km/h
Spd
kts
Gust
kts
28/11:30pm 20.1 - - - - ENE 9 13 5 7 - - -
28/11:00pm 20.0 - - - - E 11 15 6 8 - - -
28/10:30pm 20.2 - - - - ESE 9 11 5 6 - - -
28/10:00pm 20.2 - - - - ESE 13 15 7 8 - - -
28/09:30pm 20.1 - - - - SE 13 19 7 10 - - -
28/09:00pm 20.1 - - - - ESE 15 17 8 9 - - -
28/08:30pm 20.0 - - - - ESE 13 20 7 11 - - -
28/08:00pm 20.1 - - - - SE 17 24 9 13 - - -
28/07:30pm 20.2 - - - - ESE 17 20 9 11 - - -
28/07:00pm 20.2 - - - - SE 17 24 9 13 - - -
28/06:30pm 20.3 - - - - SE 15 19 8 10 - - -
28/05:30pm 21.4 - - - - ESE 17 22 9 12 - - -
28/05:00pm 20.9 - - - - ESE 17 24 9 13 - - -
28/04:30pm 21.4 - - - - SE 17 22 9 12 - - -
28/04:00pm 21.3 - - - - SE 19 26 10 14 - - -
28/03:30pm 21.3 - - - - SE 20 28 11 15 - - -
28/03:00pm 20.5 - - - - SE 20 26 11 14 - - -
28/02:30pm 20.9 - - - - SE 20 26 11 14 - - -
28/02:00pm 21.1 - - - - SE 19 26 10 14 - - -
28/01:30pm 20.8 - - - - S 19 26 10 14 - - -
28/01:00pm 20.7 - - - - SSE 19 26 10 14 - - -
28/12:30pm 20.6 - - - - S 20 26 11 14 - - -
28/12:00pm 20.6 - - - - SSE 22 28 12 15 - - -
28/11:30am 20.3 - - - - SSW 13 20 7 11 - - -
28/11:00am 19.9 - - - - SW 11 17 6 9 - - -
28/10:30am 19.4 - - - - WSW 19 22 10 12 - - -
28/10:00am 18.8 - - - - W 22 28 12 15 - - -
28/09:30am 18.3 - - - - W 22 30 12 16 - - -
28/09:00am 17.6 - - - - W 24 28 13 15 - - -
28/08:30am 17.3 - - - - WSW 22 28 12 15 - - -
28/08:00am 17.0 - - - - WSW 22 28 12 15 - - -
28/07:30am 16.9 - - - - WSW 22 28 12 15 - - -
28/07:00am 17.1 - - - - WSW 22 30 12 16 - - -
28/06:30am 17.2 - - - - W 24 28 13 15 - - -
28/06:00am 17.4 - - - - WSW 22 30 12 16 - - -
28/05:30am 17.6 - - - - WSW 24 30 13 16 - - -
28/05:00am 17.7 - - - - WSW 20 30 11 16 - - -
28/04:30am 17.8 - - - - WSW 22 30 12 16 - - -
28/04:00am 18.0 - - - - WSW 22 32 12 17 - - -
28/03:30am 18.0 - - - - WSW 24 30 13 16 - - -
28/03:00am 18.5 - - - - W 24 32 13 17 - - -
28/02:30am 18.7 - - - - WSW 20 28 11 15 - - -
28/02:00am 19.3 - - - - WSW 20 35 11 19 - - -
28/01:30am 19.5 - - - - WSW 20 28 11 15 - - -
28/01:00am 19.9 - - - - WSW 24 32 13 17 - - -
28/12:30am 20.2 - - - - WSW 20 28 11 15 - - -
28/12:00am 20.5 - - - - WSW 22 30 12 16 - - -
 
Date/Time
EDT
Temp
°C
App
Temp
°C
Dew
Point
Rel
Hum
%
Delta-T
°C
Wind Press
QNH
hPa
Press
MSL
hPa
Rain
since 9 am
mm
Dir
 
Spd
km/h
Gust
km/h
Spd
kts
Gust
kts
27/11:30pm 20.8 - - - - WSW 24 32 13 17 - - -
27/11:00pm 21.2 - - - - WSW 22 32 12 17 - - -
27/10:30pm 21.5 - - - - WSW 20 30 11 16 - - -
27/10:00pm 21.9 - - - - W 17 28 9 15 - - -
27/09:30pm 21.8 - - - - W 13 17 7 9 - - -
27/09:00pm 21.9 - - - - WNW 9 13 5 7 - - -
27/08:30pm 21.4 - - - - NNE 9 15 5 8 - - -
27/08:00pm 21.5 - - - - NNE 6 9 3 5 - - -
27/07:30pm 22.0 - - - - NNE 11 13 6 7 - - -
27/07:00pm 22.1 - - - - NE 13 15 7 8 - - -
27/06:30pm 22.2 - - - - ENE 11 15 6 8 - - -
27/06:00pm 22.5 - - - - ENE 15 19 8 10 - - -
27/05:30pm 23.1 - - - - E 20 24 11 13 - - -
27/05:00pm 23.8 - - - - ESE 19 30 10 16 - - -
27/04:30pm 24.6 - - - - SW 24 33 13 18 - - -
27/04:00pm 24.7 - - - - WSW 19 28 10 15 - - -
27/03:30pm 24.6 - - - - W 22 33 12 18 - - -
27/03:00pm 23.8 - - - - WSW 13 20 7 11 - - -
27/02:30pm 23.2 - - - - W 13 24 7 13 - - -
27/02:00pm 22.6 - - - - WSW 24 37 13 20 - - -
27/01:30pm 22.2 - - - - WNW 26 33 14 18 - - -
27/01:00pm 21.6 - - - - W 24 33 13 18 - - -
27/12:30pm 20.7 - - - - WNW 15 28 8 15 - - -
27/12:00pm 20.0 - - - - W 20 26 11 14 - - -
27/11:30am 19.3 - - - - W 22 30 12 16 - - -
27/11:00am 18.6 - - - - W 24 35 13 19 - - -
27/10:30am 18.0 - - - - W 20 33 11 18 - - -
27/10:00am 17.4 - - - - W 20 32 11 17 - - -
27/09:30am 17.3 - - - - W 28 39 15 21 - - -
27/09:00am 16.5 - - - - WSW 20 32 11 17 - - -
27/08:30am 16.2 - - - - W 22 30 12 16 - - -
27/08:00am 16.4 - - - - WSW 26 41 14 22 - - -
27/07:30am 16.2 - - - - WSW 20 35 11 19 - - -
27/07:00am 16.3 - - - - W 20 30 11 16 - - -
27/06:30am 16.4 - - - - W 20 26 11 14 - - -
27/06:00am 16.5 - - - - W 22 30 12 16 - - -
27/05:30am 17.0 - - - - W 26 35 14 19 - - -
27/05:00am 17.1 - - - - WSW 32 46 17 25 - - -
27/04:31am 17.2 - - - - WSW 28 46 15 25 - - -
27/04:30am 17.3 - - - - W 26 46 14 25 - - -
27/04:14am 17.3 - - - - WSW 30 48 16 26 - - -
27/04:00am 17.6 - - - - WSW 32 43 17 23 - - -
27/03:30am 17.8 - - - - WSW 33 50 18 27 - - -
27/03:29am 17.9 - - - - WSW 32 50 17 27 - - -
27/03:00am 18.2 - - - - WSW 41 50 22 27 - - -
27/02:30am 18.6 - - - - WSW 35 48 19 26 - - -
27/02:00am 19.0 - - - - WSW 43 57 23 31 - - -
27/01:30am 19.0 - - - - WSW 37 54 20 29 - - -
27/01:00am 19.2 - - - - WSW 39 52 21 28 - - -
27/12:30am 19.4 - - - - WSW 32 43 17 23 - - -
27/12:00am 19.9 - - - - WSW 33 44 18 24 - - -
 
Date/Time
EDT
Temp
°C
App
Temp
°C
Dew
Point
Rel
Hum
%
Delta-T
°C
Wind Press
QNH
hPa
Press
MSL
hPa
Rain
since 9 am
mm
Dir
 
Spd
km/h
Gust
km/h
Spd
kts
Gust
kts
26/11:30pm 20.5 - - - - WSW 33 50 18 27 - - -
26/11:00pm 21.0 - - - - WSW 30 39 16 21 - - -
26/10:30pm 21.6 - - - - WSW 24 32 13 17 - - -
26/10:00pm 22.3 - - - - WSW 24 32 13 17 - - -
26/09:30pm 23.0 - - - - WSW 26 39 14 21 - - -
26/09:00pm 21.7 - - - - SE 7 11 4 6 - - -
26/08:30pm 20.9 - - - - ESE 6 9 3 5 - - -
26/08:00pm 21.5 - - - - CALM 0 0 0 0 - - -
26/07:30pm 22.6 - - - - ESE 6 7 3 4 - - -
26/07:00pm 22.7 - - - - ESE 9 11 5 6 - - -
26/06:30pm 23.5 - - - - SE 11 15 6 8 - - -
26/06:00pm 23.0 - - - - ESE 15 17 8 9 - - -
26/05:30pm 23.7 - - - - ESE 17 22 9 12 - - -
26/05:00pm 23.6 - - - - ESE 20 26 11 14 - - -
26/04:30pm 24.0 - - - - ESE 20 24 11 13 - - -
26/04:00pm 24.1 - - - - E 19 24 10 13 - - -
26/03:30pm 26.1 - - - - NW 13 20 7 11 - - -
26/03:00pm 25.5 - - - - WSW 17 26 9 14 - - -
26/02:30pm 24.7 - - - - SW 20 30 11 16 - - -
26/02:00pm 24.3 - - - - WSW 19 26 10 14 - - -
26/01:30pm 24.2 - - - - WSW 20 26 11 14 - - -
26/01:00pm 23.6 - - - - SW 19 24 10 13 - - -
26/12:30pm 22.9 - - - - WSW 19 24 10 13 - - -
26/12:00pm 22.4 - - - - SW 15 20 8 11 - - -
26/11:30am 22.1 - - - - WSW 17 22 9 12 - - -
26/11:00am 21.6 - - - - W 19 24 10 13 - - -
26/10:30am 20.8 - - - - WSW 17 26 9 14 - - -
26/10:00am 20.2 - - - - W 20 24 11 13 - - -
26/09:30am 19.8 - - - - W 24 28 13 15 - - -
26/09:00am 19.4 - - - - W 24 32 13 17 - - -
26/08:30am 20.1 - - - - W 19 22 10 12 - - -
26/08:00am 19.6 - - - - WSW 6 7 3 4 - - -
26/07:30am 18.8 - - - - WSW 9 11 5 6 - - -
26/07:00am 18.7 - - - - WSW 9 13 5 7 - - -
26/06:30am 18.9 - - - - WSW 11 13 6 7 - - -
26/06:00am 18.7 - - - - WSW 13 19 7 10 - - -
26/05:30am 18.9 - - - - WSW 9 13 5 7 - - -
26/05:00am 18.8 - - - - WSW 13 15 7 8 - - -
26/04:30am 19.3 - - - - W 9 13 5 7 - - -
26/04:00am 19.5 - - - - W 6 11 3 6 - - -
26/03:30am 19.4 - - - - W 7 11 4 6 - - -
26/03:00am 19.5 - - - - WNW 11 15 6 8 - - -

Other Formats:

Comma delimited format used in spreadsheet applications
http://www.bom.gov.au/fwo/IDN60801/IDN60801.95766.axf

JavaScript Object Notation format (JSON) in row-major order
http://www.bom.gov.au/fwo/IDN60801/IDN60801.95766.json